sensor_id;sensor_type;location;lat;lon;timestamp;pressure;altitude;pressure_sealevel;temperature;humidity
32320;BME280;19080;51.750;5.888;2023-07-31T00:01:44;100797.78;;;16.27;100.00
32320;BME280;19080;51.750;5.888;2023-07-31T00:04:11;100790.63;;;16.27;100.00
32320;BME280;19080;51.750;5.888;2023-07-31T00:06:38;100807.47;;;16.42;100.00
32320;BME280;19080;51.750;5.888;2023-07-31T00:09:05;100794.06;;;16.43;100.00
32320;BME280;19080;51.750;5.888;2023-07-31T00:11:32;100789.53;;;16.50;100.00
32320;BME280;19080;51.750;5.888;2023-07-31T00:13:58;100776.94;;;16.58;100.00
32320;BME280;19080;51.750;5.888;2023-07-31T00:16:26;100765.28;;;16.62;100.00
32320;BME280;19080;51.750;5.888;2023-07-31T00:18:53;100775.88;;;16.77;100.00
32320;BME280;19080;51.750;5.888;2023-07-31T00:21:19;100775.91;;;16.76;100.00
32320;BME280;19080;51.750;5.888;2023-07-31T00:23:46;100760.66;;;16.81;100.00
32320;BME280;19080;51.750;5.888;2023-07-31T00:26:13;100781.94;;;16.95;100.00
32320;BME280;19080;51.750;5.888;2023-07-31T00:28:40;100784.63;;;16.95;100.00
32320;BME280;19080;51.750;5.888;2023-07-31T00:31:06;100766.88;;;16.84;100.00
32320;BME280;19080;51.750;5.888;2023-07-31T00:33:34;100761.47;;;16.86;100.00
32320;BME280;19080;51.750;5.888;2023-07-31T00:36:02;100768.53;;;16.93;100.00
32320;BME280;19080;51.750;5.888;2023-07-31T00:38:29;100781.78;;;17.07;100.00
32320;BME280;19080;51.750;5.888;2023-07-31T00:40:56;100751.66;;;16.86;100.00
32320;BME280;19080;51.750;5.888;2023-07-31T00:43:22;100767.50;;;17.05;100.00
32320;BME280;19080;51.750;5.888;2023-07-31T00:45:49;100738.16;;;16.92;100.00
32320;BME280;19080;51.750;5.888;2023-07-31T00:48:16;100747.81;;;17.07;100.00
32320;BME280;19080;51.750;5.888;2023-07-31T00:50:43;100761.25;;;17.04;100.00
32320;BME280;19080;51.750;5.888;2023-07-31T00:53:11;100758.50;;;17.09;100.00
32320;BME280;19080;51.750;5.888;2023-07-31T00:55:38;100786.09;;;17.20;100.00
32320;BME280;19080;51.750;5.888;2023-07-31T00:58:05;100783.38;;;17.21;100.00
32320;BME280;19080;51.750;5.888;2023-07-31T01:00:32;100753.19;;;17.07;100.00
32320;BME280;19080;51.750;5.888;2023-07-31T01:02:58;100766.44;;;17.19;100.00
32320;BME280;19080;51.750;5.888;2023-07-31T01:08:18;100746.91;;;17.08;100.00
32320;BME280;19080;51.750;5.888;2023-07-31T01:10:51;100774.38;;;17.27;100.00
32320;BME280;19080;51.750;5.888;2023-07-31T01:13:21;100726.41;;;17.03;100.00
32320;BME280;19080;51.750;5.888;2023-07-31T01:15:47;100686.47;;;16.83;100.00
32320;BME280;19080;51.750;5.888;2023-07-31T01:18:14;100735.13;;;17.20;100.00
32320;BME280;19080;51.750;5.888;2023-07-31T01:20:42;100744.13;;;17.16;100.00
32320;BME280;19080;51.750;5.888;2023-07-31T01:24:30;100704.19;;;16.95;100.00
32320;BME280;19080;51.750;5.888;2023-07-31T01:26:28;100753.91;;;17.20;100.00
32320;BME280;19080;51.750;5.888;2023-07-31T01:29:01;100769.00;;;17.29;100.00
32320;BME280;19080;51.750;5.888;2023-07-31T01:31:31;100756.53;;;17.23;100.00
32320;BME280;19080;51.750;5.888;2023-07-31T01:34:01;100777.00;;;17.30;100.00
32320;BME280;19080;51.750;5.888;2023-07-31T01:36:30;100768.09;;;17.28;100.00
32320;BME280;19080;51.750;5.888;2023-07-31T01:39:00;100752.09;;;17.20;100.00
32320;BME280;19080;51.750;5.888;2023-07-31T01:41:27;100766.28;;;17.30;100.00
32320;BME280;19080;51.750;5.888;2023-07-31T01:43:54;100747.66;;;17.18;100.00
32320;BME280;19080;51.750;5.888;2023-07-31T01:46:20;100756.47;;;17.29;100.00
32320;BME280;19080;51.750;5.888;2023-07-31T01:48:47;100744.00;;;17.23;100.00
32320;BME280;19080;51.750;5.888;2023-07-31T01:51:14;100761.72;;;17.35;100.00
32320;BME280;19080;51.750;5.888;2023-07-31T01:53:40;100735.16;;;17.18;100.00
32320;BME280;19080;51.750;5.888;2023-07-31T01:56:07;100735.13;;;17.20;100.00
32320;BME280;19080;51.750;5.888;2023-07-31T01:58:34;100747.50;;;17.30;100.00
32320;BME280;19080;51.750;5.888;2023-07-31T02:01:01;100743.97;;;17.27;100.00
32320;BME280;19080;51.750;5.888;2023-07-31T02:03:27;100737.75;;;17.24;100.00
32320;BME280;19080;51.750;5.888;2023-07-31T02:05:54;100697.78;;;17.05;100.00
32320;BME280;19080;51.750;5.888;2023-07-31T02:08:21;100647.25;;;16.74;100.00
32320;BME280;19080;51.750;5.888;2023-07-31T02:10:48;100695.16;;;17.00;100.00
32320;BME280;19080;51.750;5.888;2023-07-31T02:13:15;100736.81;;;17.27;100.00
32320;BME280;19080;51.750;5.888;2023-07-31T02:15:41;100718.25;;;17.12;100.00
32320;BME280;19080;51.750;5.888;2023-07-31T02:18:08;100658.72;;;16.85;100.00
32320;BME280;19080;51.750;5.888;2023-07-31T02:20:35;100702.19;;;17.10;100.00
32320;BME280;19080;51.750;5.888;2023-07-31T02:23:02;100724.31;;;17.26;100.00
32320;BME280;19080;51.750;5.888;2023-07-31T02:25:29;100726.13;;;17.24;100.00
32320;BME280;19080;51.750;5.888;2023-07-31T02:27:56;100669.38;;;16.91;100.00
32320;BME280;19080;51.750;5.888;2023-07-31T02:30:23;100725.28;;;17.20;100.00
32320;BME280;19080;51.750;5.888;2023-07-31T02:32:49;100706.63;;;17.13;100.00
32320;BME280;19080;51.750;5.888;2023-07-31T02:35:16;100705.72;;;17.12;100.00
32320;BME280;19080;51.750;5.888;2023-07-31T02:37:45;100697.78;;;17.05;100.00
32320;BME280;19080;51.750;5.888;2023-07-31T02:40:13;100722.63;;;17.19;100.00
32320;BME280;19080;51.750;5.888;2023-07-31T02:42:40;100728.03;;;17.16;100.00
32320;BME280;19080;51.750;5.888;2023-07-31T02:45:07;100700.50;;;17.02;100.00
32320;BME280;19080;51.750;5.888;2023-07-31T02:47:34;100656.91;;;16.87;100.00
32320;BME280;19080;51.750;5.888;2023-07-31T02:50:02;100678.31;;;16.90;100.00
32320;BME280;19080;51.750;5.888;2023-07-31T02:52:29;100706.69;;;17.07;100.00
32320;BME280;19080;51.750;5.888;2023-07-31T02:54:57;100700.50;;;17.03;100.00
32320;BME280;19080;51.750;5.888;2023-07-31T02:57:24;100705.03;;;16.97;100.00
32320;BME280;19080;51.750;5.888;2023-07-31T02:59:50;100718.28;;;17.10;100.00
32320;BME280;19080;51.750;5.888;2023-07-31T03:02:17;100672.09;;;16.88;100.00
32320;BME280;19080;51.750;5.888;2023-07-31T03:04:44;100677.44;;;16.88;100.00
32320;BME280;19080;51.750;5.888;2023-07-31T03:07:12;100687.19;;;16.94;100.00
32320;BME280;19080;51.750;5.888;2023-07-31T03:09:40;100668.53;;;16.86;100.00
32320;BME280;19080;51.750;5.888;2023-07-31T03:12:07;100701.41;;;17.01;100.00
32320;BME280;19080;51.750;5.888;2023-07-31T03:14:35;100712.94;;;17.07;100.00
32320;BME280;19080;51.750;5.888;2023-07-31T03:17:03;100712.94;;;17.07;100.00
32320;BME280;19080;51.750;5.888;2023-07-31T03:19:31;100624.25;;;16.55;100.00
32320;BME280;19080;51.750;5.888;2023-07-31T03:21:59;100713.88;;;17.05;100.00
32320;BME280;19080;51.750;5.888;2023-07-31T03:24:28;100709.44;;;17.02;100.00
32320;BME280;19080;51.750;5.888;2023-07-31T03:26:55;100685.56;;;16.82;100.00
32320;BME280;19080;51.750;5.888;2023-07-31T03:29:23;100681.09;;;16.83;100.00
32320;BME280;19080;51.750;5.888;2023-07-31T03:31:51;100701.53;;;16.91;100.00
32320;BME280;19080;51.750;5.888;2023-07-31T03:34:18;100672.16;;;16.84;100.00
32320;BME280;19080;51.750;5.888;2023-07-31T03:36:45;100696.13;;;16.95;100.00
32320;BME280;19080;51.750;5.888;2023-07-31T03:39:12;100705.84;;;17.03;100.00
32320;BME280;19080;51.750;5.888;2023-07-31T03:41:38;100669.47;;;16.82;100.00
32320;BME280;19080;51.750;5.888;2023-07-31T03:44:05;100679.25;;;16.86;100.00
32320;BME280;19080;51.750;5.888;2023-07-31T03:46:32;100702.34;;;16.98;100.00
32320;BME280;19080;51.750;5.888;2023-07-31T03:49:00;100679.25;;;16.88;100.00
32320;BME280;19080;51.750;5.888;2023-07-31T03:51:27;100674.75;;;16.88;100.00
32320;BME280;19080;51.750;5.888;2023-07-31T03:53:54;100694.34;;;16.94;100.00
32320;BME280;19080;51.750;5.888;2023-07-31T03:56:21;100676.56;;;16.86;100.00
32320;BME280;19080;51.750;5.888;2023-07-31T03:58:49;100676.69;;;16.77;100.00
32320;BME280;19080;51.750;5.888;2023-07-31T04:01:15;100677.50;;;16.84;100.00
32320;BME280;19080;51.750;5.888;2023-07-31T04:03:43;100688.13;;;16.91;100.00
32320;BME280;19080;51.750;5.888;2023-07-31T04:06:10;100673.03;;;16.84;100.00
32320;BME280;19080;51.750;5.888;2023-07-31T04:08:37;100668.53;;;16.86;100.00
32320;BME280;19080;51.750;5.888;2023-07-31T04:11:03;100676.50;;;16.92;100.00
32320;BME280;19080;51.750;5.888;2023-07-31T04:13:30;100664.88;;;16.92;100.00
32320;BME280;19080;51.750;5.888;2023-07-31T04:15:57;100658.69;;;16.88;100.00
32320;BME280;19080;51.750;5.888;2023-07-31T04:18:25;100660.41;;;16.92;100.00
32320;BME280;19080;51.750;5.888;2023-07-31T04:20:52;100676.34;;;17.05;100.00
32320;BME280;19080;51.750;5.888;2023-07-31T04:23:19;100630.19;;;16.81;100.00
32320;BME280;19080;51.750;5.888;2023-07-31T04:25:45;100599.97;;;16.70;100.00
32320;BME280;19080;51.750;5.888;2023-07-31T04:28:12;100610.53;;;16.81;100.00
32320;BME280;19080;51.750;5.888;2023-07-31T04:30:39;100649.50;;;17.05;100.00
32320;BME280;19080;51.750;5.888;2023-07-31T04:33:06;100629.91;;;17.00;100.00
32320;BME280;19080;51.750;5.888;2023-07-31T04:35:33;100650.28;;;17.13;100.00
32320;BME280;19080;51.750;5.888;2023-07-31T04:37:59;100643.97;;;17.17;100.00
32320;BME280;19080;51.750;5.888;2023-07-31T04:40:26;100565.94;;;16.75;100.00
32320;BME280;19080;51.750;5.888;2023-07-31T04:42:54;100635.00;;;17.18;100.00
32320;BME280;19080;51.750;5.888;2023-07-31T04:45:20;100659.75;;;17.35;100.00
32320;BME280;19080;51.750;5.888;2023-07-31T04:47:47;100630.50;;;17.20;100.00
32320;BME280;19080;51.750;5.888;2023-07-31T04:50:14;100658.94;;;17.32;100.00
32320;BME280;19080;51.750;5.888;2023-07-31T04:52:40;100635.75;;;17.28;100.00
32320;BME280;19080;51.750;5.888;2023-07-31T04:55:07;100652.47;;;17.43;100.00
32320;BME280;19080;51.750;5.888;2023-07-31T04:57:34;100634.66;;;17.39;100.00
32320;BME280;19080;51.750;5.888;2023-07-31T05:00:01;100609.78;;;17.31;100.00
32320;BME280;19080;51.750;5.888;2023-07-31T05:02:27;100626.59;;;17.39;100.00
32320;BME280;19080;51.750;5.888;2023-07-31T05:04:55;100645.22;;;17.48;100.00
32320;BME280;19080;51.750;5.888;2023-07-31T05:07:22;100563.47;;;17.18;100.00
32320;BME280;19080;51.750;5.888;2023-07-31T05:09:48;100637.72;;;17.72;100.00
32320;BME280;19080;51.750;5.888;2023-07-31T05:12:16;100619.88;;;17.69;100.00
32320;BME280;19080;51.750;5.888;2023-07-31T05:14:43;100612.78;;;17.64;100.00
32320;BME280;19080;51.750;5.888;2023-07-31T05:17:09;100618.97;;;17.69;100.00
32320;BME280;19080;51.750;5.888;2023-07-31T05:19:36;100610.00;;;17.71;100.00
32320;BME280;19080;51.750;5.888;2023-07-31T05:22:03;100609.16;;;17.68;100.00
32320;BME280;19080;51.750;5.888;2023-07-31T05:24:30;100621.56;;;17.75;100.00
32320;BME280;19080;51.750;5.888;2023-07-31T05:26:56;100604.66;;;17.68;100.00
32320;BME280;19080;51.750;5.888;2023-07-31T05:29:24;100600.38;;;17.56;100.00
32320;BME280;19080;51.750;5.888;2023-07-31T05:31:51;100594.28;;;17.45;100.00
32320;BME280;19080;51.750;5.888;2023-07-31T05:34:18;100527.03;;;17.05;100.00
32320;BME280;19080;51.750;5.888;2023-07-31T05:36:44;100612.13;;;17.49;100.00
32320;BME280;19080;51.750;5.888;2023-07-31T05:39:11;100529.84;;;16.98;100.00
32320;BME280;19080;51.750;5.888;2023-07-31T05:41:37;100606.19;;;17.32;100.00
32320;BME280;19080;51.750;5.888;2023-07-31T05:44:05;100610.66;;;17.32;100.00
32320;BME280;19080;51.750;5.888;2023-07-31T05:46:33;100595.50;;;17.29;100.00
32320;BME280;19080;51.750;5.888;2023-07-31T05:49:00;100609.06;;;17.20;100.00
32320;BME280;19080;51.750;5.888;2023-07-31T05:51:27;100565.63;;;16.97;100.00
32320;BME280;19080;51.750;5.888;2023-07-31T05:53:54;100554.97;;;16.90;100.00
32320;BME280;19080;51.750;5.888;2023-07-31T05:56:21;100598.38;;;17.17;100.00
32320;BME280;19080;51.750;5.888;2023-07-31T05:58:48;100582.38;;;17.11;100.00
32320;BME280;19080;51.750;5.888;2023-07-31T06:01:16;100585.91;;;17.13;100.00
32320;BME280;19080;51.750;5.888;2023-07-31T06:03:43;100571.75;;;17.05;100.00
32320;BME280;19080;51.750;5.888;2023-07-31T06:06:11;100585.97;;;17.10;100.00
32320;BME280;19080;51.750;5.888;2023-07-31T06:08:37;100569.16;;;16.99;100.00
32320;BME280;19080;51.750;5.888;2023-07-31T06:11:04;100577.13;;;17.03;100.00
32320;BME280;19080;51.750;5.888;2023-07-31T06:13:32;100575.28;;;17.07;100.00
32320;BME280;19080;51.750;5.888;2023-07-31T06:15:58;100576.25;;;17.03;100.00
32320;BME280;19080;51.750;5.888;2023-07-31T06:18:26;100573.53;;;17.04;100.00
32320;BME280;19080;51.750;5.888;2023-07-31T06:20:52;100574.44;;;17.05;100.00
32320;BME280;19080;51.750;5.888;2023-07-31T06:23:20;100590.38;;;17.14;100.00
32320;BME280;19080;51.750;5.888;2023-07-31T06:25:47;100578.66;;;17.19;100.00
32320;BME280;19080;51.750;5.888;2023-07-31T06:28:13;100571.50;;;17.20;100.00
32320;BME280;19080;51.750;5.888;2023-07-31T06:30:40;100587.53;;;17.23;100.00
32320;BME280;19080;51.750;5.888;2023-07-31T06:33:07;100568.78;;;17.23;100.00
32320;BME280;19080;51.750;5.888;2023-07-31T06:35:34;100575.84;;;17.27;100.00
32320;BME280;19080;51.750;5.888;2023-07-31T06:38:00;100576.75;;;17.28;100.00
32320;BME280;19080;51.750;5.888;2023-07-31T06:40:31;100572.25;;;17.28;100.00
32320;BME280;19080;51.750;5.888;2023-07-31T06:42:58;100568.63;;;17.32;100.00
32320;BME280;19080;51.750;5.888;2023-07-31T06:45:24;100490.59;;;16.94;100.00
32320;BME280;19080;51.750;5.888;2023-07-31T06:47:51;100558.81;;;17.31;100.00
32320;BME280;19080;51.750;5.888;2023-07-31T06:50:18;100506.47;;;17.06;100.00
32320;BME280;19080;51.750;5.888;2023-07-31T06:52:45;100544.59;;;17.24;100.00
32320;BME280;19080;51.750;5.888;2023-07-31T06:55:21;100488.78;;;16.96;100.00
32320;BME280;19080;51.750;5.888;2023-07-31T06:57:52;100554.22;;;17.36;100.00
32320;BME280;19080;51.750;5.888;2023-07-31T07:00:20;100541.59;;;17.41;100.00
32320;BME280;19080;51.750;5.888;2023-07-31T07:02:48;100496.28;;;17.26;100.00
32320;BME280;19080;51.750;5.888;2023-07-31T07:05:16;100507.53;;;17.46;100.00
32320;BME280;19080;51.750;5.888;2023-07-31T07:07:43;100534.88;;;17.68;100.00
32320;BME280;19080;51.750;5.888;2023-07-31T07:10:10;100523.28;;;17.65;100.00
32320;BME280;19080;51.750;5.888;2023-07-31T07:12:37;100523.19;;;17.71;100.00
32320;BME280;19080;51.750;5.888;2023-07-31T07:15:04;100521.44;;;17.70;100.00
32320;BME280;19080;51.750;5.888;2023-07-31T07:17:31;100526.63;;;17.79;100.00
32320;BME280;19080;51.750;5.888;2023-07-31T07:19:59;100504.44;;;17.69;100.00
32320;BME280;19080;51.750;5.888;2023-07-31T07:22:29;100528.38;;;17.80;100.00
32320;BME280;19080;51.750;5.888;2023-07-31T07:24:56;100510.63;;;17.73;100.00
32320;BME280;19080;51.750;5.888;2023-07-31T07:27:23;100510.63;;;17.73;100.00
32320;BME280;19080;51.750;5.888;2023-07-31T07:29:51;100428.13;;;17.35;100.00
32320;BME280;19080;51.750;5.888;2023-07-31T07:32:21;100498.09;;;17.73;100.00
32320;BME280;19080;51.750;5.888;2023-07-31T07:34:48;100517.59;;;17.83;100.00
32320;BME280;19080;51.750;5.888;2023-07-31T07:37:15;100508.63;;;17.84;100.00
32320;BME280;19080;51.750;5.888;2023-07-31T07:39:42;100462.63;;;17.54;100.00
32320;BME280;19080;51.750;5.888;2023-07-31T07:42:09;100507.75;;;17.83;100.00
32320;BME280;19080;51.750;5.888;2023-07-31T07:44:36;100449.13;;;17.59;100.00
32320;BME280;19080;51.750;5.888;2023-07-31T07:47:03;100481.91;;;17.78;100.00
32320;BME280;19080;51.750;5.888;2023-07-31T07:49:29;100512.66;;;18.05;100.00
32320;BME280;19080;51.750;5.888;2023-07-31T07:51:56;100494.03;;;17.97;100.00
32320;BME280;19080;51.750;5.888;2023-07-31T07:54:23;100510.03;;;18.03;100.00
32320;BME280;19080;51.750;5.888;2023-07-31T07:56:50;100506.34;;;18.07;100.00
32320;BME280;19080;51.750;5.888;2023-07-31T07:59:16;100412.94;;;17.35;100.00
32320;BME280;19080;51.750;5.888;2023-07-31T08:01:43;100517.31;;;17.97;100.00
32320;BME280;19080;51.750;5.888;2023-07-31T08:04:10;100506.41;;;18.04;100.00
32320;BME280;19080;51.750;5.888;2023-07-31T08:06:36;100491.19;;;18.05;100.00
32320;BME280;19080;51.750;5.888;2023-07-31T08:09:04;100508.00;;;18.14;100.00
32320;BME280;19080;51.750;5.888;2023-07-31T08:11:33;100495.41;;;18.16;100.00
32320;BME280;19080;51.750;5.888;2023-07-31T08:14:00;100496.34;;;18.15;100.00
32320;BME280;19080;51.750;5.888;2023-07-31T08:16:26;100505.19;;;18.20;100.00
32320;BME280;19080;51.750;5.888;2023-07-31T08:18:53;100501.69;;;18.15;100.00
32320;BME280;19080;51.750;5.888;2023-07-31T08:21:21;100507.03;;;18.17;100.00
32320;BME280;19080;51.750;5.888;2023-07-31T08:23:48;100510.69;;;18.14;100.00
32320;BME280;19080;51.750;5.888;2023-07-31T08:26:16;100466.38;;;17.92;100.00
32320;BME280;19080;51.750;5.888;2023-07-31T08:28:43;100499.28;;;18.03;100.00
32320;BME280;19080;51.750;5.888;2023-07-31T08:31:10;100493.94;;;18.02;100.00
32320;BME280;19080;51.750;5.888;2023-07-31T08:33:38;100473.47;;;17.96;100.00
32320;BME280;19080;51.750;5.888;2023-07-31T08:36:05;100494.53;;;18.16;100.00
32320;BME280;19080;51.750;5.888;2023-07-31T08:38:32;100420.88;;;17.86;100.00
32320;BME280;19080;51.750;5.888;2023-07-31T08:40:59;100488.88;;;18.28;100.00
32320;BME280;19080;51.750;5.888;2023-07-31T08:43:26;100421.66;;;17.91;100.00
32320;BME280;19080;51.750;5.888;2023-07-31T08:45:53;100486.13;;;18.31;100.00
32320;BME280;19080;51.750;5.888;2023-07-31T08:48:22;100488.72;;;18.36;100.00
32320;BME280;19080;51.750;5.888;2023-07-31T08:50:51;100436.53;;;18.07;100.00
32320;BME280;19080;51.750;5.888;2023-07-31T08:53:18;100444.41;;;18.15;100.00
32320;BME280;19080;51.750;5.888;2023-07-31T08:55:46;100491.25;;;18.43;100.00
32320;BME280;19080;51.750;5.888;2023-07-31T08:58:14;100508.19;;;18.47;100.00
32320;BME280;19080;51.750;5.888;2023-07-31T09:00:42;100488.75;;;18.34;100.00
32320;BME280;19080;51.750;5.888;2023-07-31T09:03:15;100498.69;;;18.31;100.00
32320;BME280;19080;51.750;5.888;2023-07-31T09:05:44;100511.34;;;18.26;100.00
32320;BME280;19080;51.750;5.888;2023-07-31T09:08:13;100421.94;;;17.77;100.00
32320;BME280;19080;51.750;5.888;2023-07-31T09:10:42;100491.75;;;18.20;100.00
32320;BME280;19080;51.750;5.888;2023-07-31T09:13:09;100487.41;;;18.13;100.00
32320;BME280;19080;51.750;5.888;2023-07-31T09:15:39;100510.53;;;18.22;100.00
32320;BME280;19080;51.750;5.888;2023-07-31T09:18:07;100434.31;;;17.84;100.00
32320;BME280;19080;51.750;5.888;2023-07-31T09:20:35;100431.88;;;17.74;100.00
32320;BME280;19080;51.750;5.888;2023-07-31T09:23:12;100496.38;;;18.14;100.00
32320;BME280;19080;51.750;5.888;2023-07-31T09:25:43;100454.88;;;17.87;100.00
32320;BME280;19080;51.750;5.888;2023-07-31T09:28:11;100506.88;;;18.25;100.00
32320;BME280;19080;51.750;5.888;2023-07-31T09:30:49;100411.91;;;17.87;100.00
32320;BME280;19080;51.750;5.888;2023-07-31T09:33:17;100478.34;;;18.19;100.00
32320;BME280;19080;51.750;5.888;2023-07-31T09:35:44;100475.63;;;18.20;100.00
32320;BME280;19080;51.750;5.888;2023-07-31T09:38:13;100429.59;;;17.97;100.00
32320;BME280;19080;51.750;5.888;2023-07-31T09:40:49;100452.50;;;18.13;100.00
32320;BME280;19080;51.750;5.888;2023-07-31T09:43:18;100481.72;;;18.29;100.00
32320;BME280;19080;51.750;5.888;2023-07-31T09:45:46;100470.38;;;18.14;100.00
32320;BME280;19080;51.750;5.888;2023-07-31T09:48:17;100475.34;;;18.33;100.00
32320;BME280;19080;51.750;5.888;2023-07-31T09:50:48;100462.81;;;18.33;100.00
32320;BME280;19080;51.750;5.888;2023-07-31T09:53:16;100423.94;;;18.09;100.00
32320;BME280;19080;51.750;5.888;2023-07-31T09:55:43;100450.38;;;18.28;100.00
32320;BME280;19080;51.750;5.888;2023-07-31T09:58:11;100476.97;;;18.40;100.00
32320;BME280;19080;51.750;5.888;2023-07-31T10:00:39;100409.59;;;18.10;100.00
32320;BME280;19080;51.750;5.888;2023-07-31T10:03:08;100474.53;;;18.69;100.00
32320;BME280;19080;51.750;5.888;2023-07-31T10:05:40;100469.81;;;18.79;100.00
32320;BME280;19080;51.750;5.888;2023-07-31T10:08:09;100462.63;;;18.79;100.00
32320;BME280;19080;51.750;5.888;2023-07-31T10:10:41;100395.91;;;18.58;100.00
32320;BME280;19080;51.750;5.888;2023-07-31T10:13:08;100461.84;;;19.10;100.00
32320;BME280;19080;51.750;5.888;2023-07-31T10:15:35;100387.09;;;18.89;100.00
32320;BME280;19080;51.750;5.888;2023-07-31T10:18:05;100464.03;;;19.62;100.00
32320;BME280;19080;51.750;5.888;2023-07-31T10:20:33;100449.66;;;19.94;100.00
32320;BME280;19080;51.750;5.888;2023-07-31T10:23:01;100468.44;;;20.27;100.00
32320;BME280;19080;51.750;5.888;2023-07-31T10:25:29;100459.72;;;20.48;100.00
32320;BME280;19080;51.750;5.888;2023-07-31T10:27:57;100407.38;;;20.26;100.00
32320;BME280;19080;51.750;5.888;2023-07-31T10:30:30;100461.63;;;20.44;100.00
32320;BME280;19080;51.750;5.888;2023-07-31T10:32:59;100405.19;;;20.09;100.00
32320;BME280;19080;51.750;5.888;2023-07-31T10:35:27;100452.81;;;20.38;100.00
32320;BME280;19080;51.750;5.888;2023-07-31T10:37:54;100460.44;;;20.53;100.00
32320;BME280;19080;51.750;5.888;2023-07-31T10:40:26;100425.91;;;20.36;100.00
32320;BME280;19080;51.750;5.888;2023-07-31T10:42:57;100458.63;;;20.54;100.00
32320;BME280;19080;51.750;5.888;2023-07-31T10:45:39;100443.88;;;20.65;100.00
32320;BME280;19080;51.750;5.888;2023-07-31T10:48:13;100454.72;;;20.90;100.00
32320;BME280;19080;51.750;5.888;2023-07-31T10:50:52;100452.50;;;21.29;100.00
32320;BME280;19080;51.750;5.888;2023-07-31T10:55:49;100449.09;;;20.96;100.00
32320;BME280;19080;51.750;5.888;2023-07-31T10:58:20;100452.69;;;20.70;100.00
32320;BME280;19080;51.750;5.888;2023-07-31T11:00:49;100439.41;;;20.64;100.00
32320;BME280;19080;51.750;5.888;2023-07-31T11:03:19;100318.19;;;20.05;100.00
32320;BME280;19080;51.750;5.888;2023-07-31T11:08:45;100442.56;;;21.03;100.00
32320;BME280;19080;51.750;5.888;2023-07-31T11:11:17;100372.09;;;20.61;100.00
32320;BME280;19080;51.750;5.888;2023-07-31T11:13:51;100436.44;;;20.98;100.00
32320;BME280;19080;51.750;5.888;2023-07-31T11:16:24;100450.41;;;20.85;100.00
32320;BME280;19080;51.750;5.888;2023-07-31T11:18:52;100448.28;;;20.68;100.00
32320;BME280;19080;51.750;5.888;2023-07-31T11:21:24;100453.00;;;20.61;100.00
32320;BME280;19080;51.750;5.888;2023-07-31T11:23:53;100433.03;;;20.39;100.00
32320;BME280;19080;51.750;5.888;2023-07-31T11:26:20;100447.56;;;20.33;100.00
32320;BME280;19080;51.750;5.888;2023-07-31T11:28:47;100439.72;;;20.26;100.00
32320;BME280;19080;51.750;5.888;2023-07-31T11:31:14;100369.25;;;20.10;100.00
32320;BME280;19080;51.750;5.888;2023-07-31T11:33:41;100429.28;;;20.44;100.00
32320;BME280;19080;51.750;5.888;2023-07-31T11:36:17;100443.78;;;20.68;100.00
32320;BME280;19080;51.750;5.888;2023-07-31T11:38:44;100440.75;;;21.04;100.00
32320;BME280;19080;51.750;5.888;2023-07-31T11:41:14;100439.00;;;21.29;100.00
32320;BME280;19080;51.750;5.888;2023-07-31T11:43:41;100433.09;;;21.68;100.00
32320;BME280;19080;51.750;5.888;2023-07-31T11:46:07;100437.09;;;21.81;100.00
32320;BME280;19080;51.750;5.888;2023-07-31T11:48:37;100425.94;;;21.67;100.00
32320;BME280;19080;51.750;5.888;2023-07-31T11:51:05;100415.09;;;21.43;100.00
32320;BME280;19080;51.750;5.888;2023-07-31T11:53:44;100413.22;;;21.19;100.00
32320;BME280;19080;51.750;5.888;2023-07-31T11:56:14;100409.34;;;21.01;100.00
32320;BME280;19080;51.750;5.888;2023-07-31T11:58:41;100365.34;;;20.74;100.00
32320;BME280;19080;51.750;5.888;2023-07-31T12:01:09;100425.13;;;21.13;100.00
32320;BME280;19080;51.750;5.888;2023-07-31T12:03:37;100417.91;;;21.14;100.00
32320;BME280;19080;51.750;5.888;2023-07-31T12:06:04;100411.56;;;21.15;100.00
32320;BME280;19080;51.750;5.888;2023-07-31T12:08:31;100420.88;;;21.06;100.00
32320;BME280;19080;51.750;5.888;2023-07-31T12:11:02;100389.28;;;20.84;100.00
32320;BME280;19080;51.750;5.888;2023-07-31T12:13:31;100342.94;;;20.72;100.00
32320;BME280;19080;51.750;5.888;2023-07-31T12:15:59;100418.66;;;21.44;100.00
32320;BME280;19080;51.750;5.888;2023-07-31T12:18:29;100415.59;;;21.78;100.00
32320;BME280;19080;51.750;5.888;2023-07-31T12:20:58;100416.69;;;22.21;100.00
32320;BME280;19080;51.750;5.888;2023-07-31T12:23:28;100399.19;;;22.07;100.00
32320;BME280;19080;51.750;5.888;2023-07-31T12:26:03;100435.25;;;22.30;100.00
32320;BME280;19080;51.750;5.888;2023-07-31T12:28:35;100429.38;;;22.19;100.00
32320;BME280;19080;51.750;5.888;2023-07-31T12:31:02;100417.72;;;21.93;100.00
32320;BME280;19080;51.750;5.888;2023-07-31T12:33:34;100399.84;;;21.66;100.00
32320;BME280;19080;51.750;5.888;2023-07-31T12:36:02;100337.66;;;21.19;100.00
32320;BME280;19080;51.750;5.888;2023-07-31T12:38:30;100350.22;;;21.20;100.00
32320;BME280;19080;51.750;5.888;2023-07-31T12:40:57;100404.69;;;21.33;100.00
32320;BME280;19080;51.750;5.888;2023-07-31T12:43:23;100406.66;;;21.28;100.00
32320;BME280;19080;51.750;5.888;2023-07-31T12:45:50;100415.63;;;21.28;100.00
32320;BME280;19080;51.750;5.888;2023-07-31T12:48:17;100393.63;;;21.14;100.00
32320;BME280;19080;51.750;5.888;2023-07-31T12:50:44;100326.97;;;20.66;100.00
32320;BME280;19080;51.750;5.888;2023-07-31T12:53:10;100311.56;;;20.70;100.00